9L2 weather

Edwards Af Aux North Base Airport
Edwards, California, United States

Public forecast

Using degrees Fahrenheit for public forecast. Weather courtesy of forecast.io.

METAR (pilot weather report)

Retrieved 2019/09/16 02:58 UTC (19 minutes ago):

K9L2 160258Z AUTO 21015G21KT 8SM CLR 27/03 A2988 RMK AO2 SLP098 T02670026 52009 $

TAF (pilot weather forecast)

Forecast is more than 12 hours old.

Closest forecast is Edwards Air Force Base, 5.2 nm (9.7 km) SSW. Retrieved 2019/09/13 18:03 UTC (2 days ago):

TAF KEDW 131800Z 1318/1424 VRB06KT 9999 SKC QNH2997INS BECMG 1401/1402 VRB06KT 9999 SCT350 QNH2990INS TX35/1323Z TN13/1413Z